Time;durP1;ratioP1;P1;durP2;ratioP2;P2;SDS_P1;SDS_P2;PMS_P1;PMS_P2;Temp;Humidity;BMP_temperature;BMP_pressure;BME280_temperature;BME280_humidity;BME280_pressure;Samples;Min_cycle;Max_cycle;Signal;HPM_P1;HPM_P2
2024/01/16 00:02:07;;;;;;;3.73;3.43;;;2.20;45.00;;;;;;21006;6724;67009;-77
2024/01/16 00:04:42;;;;;;;4.33;3.60;;;2.20;45.20;;;;;;20798;6724;67411;-76
2024/01/16 00:07:19;;;;;;;3.50;3.20;;;1.70;47.20;;;;;;21013;6724;67743;-75
2024/01/16 00:09:54;;;;;;;3.60;3.30;;;1.70;46.50;;;;;;21011;6724;66980;-76
2024/01/16 00:12:30;;;;;;;5.07;4.60;;;1.50;47.20;;;;;;20794;6724;305702;-77
2024/01/16 00:15:07;;;;;;;4.97;4.57;;;1.60;46.80;;;;;;20783;6724;309331;-77
2024/01/16 00:17:43;;;;;;;3.83;3.53;;;1.90;45.70;;;;;;21006;6724;67532;-76
2024/01/16 00:20:18;;;;;;;4.20;3.50;;;1.90;45.90;;;;;;20999;6724;69239;-77
2024/01/16 00:22:54;;;;;;;4.27;3.87;;;1.70;46.60;;;;;;20960;6724;68788;-76
2024/01/16 00:25:29;;;;;;;5.10;4.70;;;1.50;47.30;;;;;;20789;6724;305500;-76
2024/01/16 00:28:05;;;;;;;5.10;4.60;;;1.60;46.90;;;;;;20792;6724;305076;-76
2024/01/16 00:30:41;;;;;;;4.93;4.53;;;2.00;45.90;;;;;;20742;6739;307553;-76
2024/01/16 00:33:16;;;;;;;4.68;4.37;;;2.20;44.90;;;;;;20687;6739;308473;-76
2024/01/16 00:35:52;;;;;;;4.50;3.93;;;2.40;44.40;;;;;;20997;6724;68024;-77
2024/01/16 00:38:28;;;;;;;4.90;4.50;;;2.30;44.90;;;;;;20800;6724;275722;-78
2024/01/16 00:41:04;;;;;;;3.90;3.60;;;2.30;44.90;;;;;;20999;6724;67634;-76
2024/01/16 00:43:39;;;;;;;3.60;3.30;;;2.20;45.20;;;;;;20896;6724;67895;-76
2024/01/16 00:46:16;;;;;;;4.70;4.30;;;2.00;46.30;;;;;;20799;6724;276338;-76
2024/01/16 00:48:51;;;;;;;4.97;4.57;;;2.00;45.70;;;;;;20792;6724;306631;-76
2024/01/16 00:51:28;;;;;;;4.03;3.73;;;2.20;45.10;;;;;;20878;6739;68596;-76
2024/01/16 00:54:03;;;;;;;3.77;3.47;;;2.20;45.10;;;;;;20816;6739;68827;-76
2024/01/16 00:56:39;;;;;;;3.77;3.37;;;1.90;45.70;;;;;;20962;6739;67642;-76
2024/01/16 00:59:15;;;;;;;4.40;4.10;;;1.80;46.00;;;;;;20742;6739;335939;-76
2024/01/16 01:01:51;;;;;;;5.10;4.60;;;1.80;46.00;;;;;;20741;6739;335827;-76
2024/01/16 01:04:26;;;;;;;4.72;4.32;;;2.10;45.20;;;;;;20589;6739;337294;-76
2024/01/16 01:07:02;;;;;;;4.62;4.22;;;2.40;44.50;;;;;;20734;6743;335492;-77
2024/01/16 01:09:38;;;;;;;4.70;4.37;;;2.70;43.70;;;;;;20737;6743;336428;-76
2024/01/16 01:12:15;;;;;;;3.83;3.53;;;2.70;43.70;;;;;;20993;6728;67598;-77
2024/01/16 01:14:51;;;;;;;4.03;3.30;;;2.50;44.00;;;;;;20773;6743;68029;-76
2024/01/16 01:17:27;;;;;;;3.50;3.20;;;2.20;44.80;;;;;;20983;6731;68137;-76
2024/01/16 01:20:02;;;;;;;4.70;4.30;;;1.90;45.50;;;;;;20783;6728;304776;-76
2024/01/16 01:22:37;;;;;;;4.60;4.20;;;1.90;45.30;;;;;;20765;6743;305485;-76
2024/01/16 01:25:14;;;;;;;4.53;4.13;;;2.20;44.80;;;;;;20733;6743;325840;-76
2024/01/16 01:27:51;;;;;;;3.60;3.40;;;2.30;44.60;;;;;;20950;6743;69092;-75
2024/01/16 01:30:26;;;;;;;3.67;3.33;;;2.30;44.60;;;;;;20996;6728;67951;-76
2024/01/16 01:33:02;;;;;;;3.37;3.17;;;2.00;45.20;;;;;;20947;6728;68363;-76
2024/01/16 01:35:37;;;;;;;3.33;3.03;;;1.70;45.80;;;;;;20944;6743;68604;-76
2024/01/16 01:38:13;;;;;;;3.77;3.47;;;1.50;46.40;;;;;;20999;6728;67887;-75
2024/01/16 01:40:49;;;;;;;3.53;3.23;;;1.30;46.90;;;;;;20992;6743;67059;-77
2024/01/16 01:43:20;;;;;;;4.32;3.92;;;1.30;46.90;;;;;;20664;6742;308676;-75
2024/01/16 01:45:46;;;;;;;3.40;3.20;;;1.30;46.90;;;;;;20670;6885;67593;-76
2024/01/16 01:48:11;;;;;;;4.55;4.15;;;1.40;46.70;;;;;;20426;6882;291474;-76
2024/01/16 01:50:38;;;;;;;3.67;3.40;;;1.50;46.40;;;;;;20736;6867;68309;-76
2024/01/16 01:53:04;;;;;;;4.60;4.15;;;1.60;46.60;;;;;;20513;6867;337333;-76
2024/01/16 01:55:32;;;;;;;3.90;3.50;;;1.70;46.20;;;;;;20727;6867;68507;-76
2024/01/16 01:57:57;;;;;;;3.50;3.07;;;1.70;46.90;;;;;;20730;6867;68572;-76
2024/01/16 02:00:24;;;;;;;4.72;4.20;;;1.60;46.30;;;;;;20525;6867;307917;-77
2024/01/16 02:02:49;;;;;;;4.50;4.10;;;1.60;46.30;;;;;;20517;6867;310433;-76
2024/01/16 02:05:15;;;;;;;4.50;4.10;;;1.90;45.60;;;;;;20510;6867;307646;-77
2024/01/16 02:07:41;;;;;;;3.70;3.40;;;2.10;44.80;;;;;;20729;6867;72364;-77
2024/01/16 02:10:07;;;;;;;4.73;4.30;;;2.10;45.00;;;;;;20518;6867;341770;-76
2024/01/16 02:12:33;;;;;;;4.57;4.03;;;2.10;44.90;;;;;;20522;6867;278564;-76
2024/01/16 02:14:58;;;;;;;4.30;4.00;;;2.30;44.60;;;;;;20519;6867;293811;-77
2024/01/16 02:17:24;;;;;;;5.10;3.73;;;2.50;44.10;;;;;;20728;6867;68027;-76
2024/01/16 02:19:50;;;;;;;4.72;4.30;;;2.40;44.40;;;;;;20521;6865;308154;-77
2024/01/16 02:22:15;;;;;;;3.47;3.20;;;2.30;44.40;;;;;;20715;6866;68119;-77
2024/01/16 02:24:41;;;;;;;3.53;3.23;;;2.20;44.70;;;;;;20713;6866;67991;-76
2024/01/16 02:27:06;;;;;;;4.30;3.90;;;1.90;45.10;;;;;;20516;6866;310015;-79
2024/01/16 02:29:34;;;;;;;4.68;4.28;;;1.90;45.10;;;;;;20514;6866;310411;-77
2024/01/16 02:31:59;;;;;;;3.77;3.47;;;2.10;44.80;;;;;;20735;6866;68841;-76
2024/01/16 02:34:24;;;;;;;4.80;4.10;;;2.10;44.90;;;;;;20523;6866;278581;-77
2024/01/16 02:36:51;;;;;;;4.55;4.25;;;2.30;44.50;;;;;;20518;6866;301903;-77
2024/01/16 02:39:16;;;;;;;4.50;4.10;;;2.30;44.50;;;;;;20530;6866;281055;-77
2024/01/16 02:41:42;;;;;;;3.67;3.37;;;2.40;44.00;;;;;;20732;6866;68412;-77
2024/01/16 02:44:08;;;;;;;3.33;3.03;;;2.30;44.20;;;;;;20730;6866;68433;-77
2024/01/16 02:46:34;;;;;;;3.63;3.30;;;2.00;44.70;;;;;;20731;6866;68431;-76
2024/01/16 02:48:59;;;;;;;3.53;3.23;;;1.70;45.30;;;;;;20736;6866;67748;-76
2024/01/16 02:51:24;;;;;;;4.53;4.12;;;1.60;45.90;;;;;;20524;6866;278814;-76
2024/01/16 02:53:50;;;;;;;3.50;3.20;;;1.60;45.60;;;;;;20730;6866;70360;-76
2024/01/16 02:56:15;;;;;;;4.25;3.95;;;1.60;45.60;;;;;;20517;6867;308781;-76
2024/01/16 02:58:42;;;;;;;4.17;3.77;;;1.70;45.40;;;;;;20734;6867;68981;-75
2024/01/16 03:01:08;;;;;;;4.18;3.83;;;1.70;45.20;;;;;;20516;6867;307667;-76
2024/01/16 03:03:34;;;;;;;4.33;4.03;;;1.70;45.20;;;;;;20521;6867;282656;-77
2024/01/16 03:05:59;;;;;;;3.20;3.00;;;2.00;44.70;;;;;;20728;6867;70176;-76
2024/01/16 03:08:25;;;;;;;3.40;3.10;;;1.90;44.70;;;;;;20737;6867;67940;-77
2024/01/16 03:10:50;;;;;;;4.47;4.07;;;1.70;45.20;;;;;;20512;6867;308288;-76
2024/01/16 03:13:16;;;;;;;4.32;4.03;;;1.70;45.20;;;;;;20519;6867;296952;-76
2024/01/16 03:15:42;;;;;;;3.77;3.50;;;2.00;44.70;;;;;;20732;6867;67968;-76
2024/01/16 03:18:07;;;;;;;4.57;3.78;;;1.90;44.60;;;;;;20514;6867;310855;-76
2024/01/16 03:20:33;;;;;;;3.83;3.37;;;1.90;44.40;;;;;;20731;6867;67956;-76
2024/01/16 03:22:58;;;;;;;4.55;4.15;;;1.80;44.60;;;;;;20514;6867;294517;-76
2024/01/16 03:25:24;;;;;;;3.40;3.17;;;1.90;44.40;;;;;;20717;6867;67477;-77
2024/01/16 03:27:49;;;;;;;4.47;4.15;;;1.80;44.60;;;;;;20511;6867;309202;-77
2024/01/16 03:30:17;;;;;;;3.63;3.30;;;1.60;44.30;;;;;;20739;6864;67666;-75
2024/01/16 03:32:43;;;;;;;3.13;2.87;;;1.60;44.30;;;;;;20734;6866;67421;-77
2024/01/16 03:35:09;;;;;;;3.00;2.80;;;1.20;45.50;;;;;;20728;6866;68070;-77
2024/01/16 03:37:34;;;;;;;3.57;3.23;;;1.20;45.50;;;;;;20731;6866;67426;-77
2024/01/16 03:40:00;;;;;;;3.95;3.65;;;1.00;45.90;;;;;;20520;6866;307830;-77
2024/01/16 03:42:26;;;;;;;3.60;3.40;;;1.10;45.70;;;;;;20729;6866;67738;-77
2024/01/16 03:44:51;;;;;;;3.53;3.23;;;1.10;45.60;;;;;;20729;6866;67412;-77
2024/01/16 03:47:17;;;;;;;3.43;3.20;;;1.00;45.80;;;;;;20737;6866;67821;-77
2024/01/16 03:49:43;;;;;;;3.43;3.13;;;0.60;46.40;;;;;;20731;6866;68337;-74
2024/01/16 03:52:08;;;;;;;4.10;3.23;;;0.60;46.30;;;;;;20731;6866;68508;-76
2024/01/16 03:54:34;;;;;;;4.15;3.75;;;0.50;46.60;;;;;;20518;6866;309374;-76
2024/01/16 03:57:00;;;;;;;4.77;2.90;;;0.60;46.20;;;;;;20736;6866;72645;-76
2024/01/16 03:59:25;;;;;;;3.47;3.17;;;0.60;46.10;;;;;;20736;6866;67468;-75
2024/01/16 04:01:51;;;;;;;4.90;3.27;;;0.50;46.40;;;;;;20732;6866;67966;-76
2024/01/16 04:04:16;;;;;;;4.25;3.85;;;0.30;46.70;;;;;;20513;6866;311802;-76
2024/01/16 04:06:43;;;;;;;4.20;3.90;;;0.80;45.50;;;;;;20522;6866;305756;-77
2024/01/16 04:09:10;;;;;;;3.92;3.70;;;1.10;44.90;;;;;;20517;6867;308593;-76
2024/01/16 04:11:36;;;;;;;3.40;3.10;;;1.00;44.50;;;;;;20738;6867;67740;-75
2024/01/16 04:14:02;;;;;;;3.67;3.20;;;0.70;44.90;;;;;;20725;6867;67467;-75
2024/01/16 04:16:28;;;;;;;3.43;2.63;;;0.70;44.90;;;;;;20731;6867;67907;-74
2024/01/16 04:18:53;;;;;;;4.28;3.97;;;0.50;45.40;;;;;;20520;6867;308711;-75
2024/01/16 04:21:19;;;;;;;3.33;3.07;;;0.50;45.50;;;;;;20730;6867;67980;-75
2024/01/16 04:23:45;;;;;;;3.30;3.10;;;0.50;45.50;;;;;;20727;6867;68990;-76
2024/01/16 04:26:10;;;;;;;3.47;3.17;;;0.30;45.70;;;;;;20733;6867;67427;-75
2024/01/16 04:28:37;;;;;;;4.33;3.30;;;0.10;46.00;;;;;;20730;6867;67905;-75
2024/01/16 04:31:06;;;;;;;3.97;3.67;;;0.00;46.40;;;;;;20475;6867;278542;-74
2024/01/16 04:33:31;;;;;;;4.50;4.10;;;0.10;46.70;;;;;;20505;6867;308129;-75
2024/01/16 04:35:57;;;;;;;3.43;3.13;;;0.40;46.30;;;;;;20728;6867;68968;-75
2024/01/16 04:38:23;;;;;;;4.65;3.85;;;0.40;46.00;;;;;;20514;6867;307881;-75
2024/01/16 04:40:48;;;;;;;3.83;3.53;;;0.40;45.90;;;;;;20729;6867;67966;-75
2024/01/16 04:43:13;;;;;;;4.10;3.80;;;0.40;45.90;;;;;;20509;6865;309860;-76
2024/01/16 04:45:39;;;;;;;4.87;4.37;;;0.40;45.90;;;;;;20514;6866;308238;-76
2024/01/16 04:48:05;;;;;;;4.17;3.83;;;0.60;45.70;;;;;;20739;6866;67577;-76
2024/01/16 04:50:33;;;;;;;3.20;2.93;;;0.50;45.60;;;;;;20731;6866;67889;-75
2024/01/16 04:53:02;;;;;;;4.63;3.03;;;0.30;46.00;;;;;;20732;6866;68002;-76
2024/01/16 04:55:27;;;;;;;3.63;3.33;;;0.00;46.40;;;;;;20720;6866;67712;-76
2024/01/16 04:57:54;;;;;;;3.50;3.20;;;-0.40;47.00;;;;;;20735;6866;72163;-76
2024/01/16 05:00:20;;;;;;;4.35;4.05;;;-0.40;47.00;;;;;;20511;6866;308663;-76
2024/01/16 05:02:46;;;;;;;4.00;3.70;;;-0.40;46.60;;;;;;20728;6866;72184;-75
2024/01/16 05:05:12;;;;;;;4.30;3.90;;;-0.40;46.40;;;;;;20509;6866;309033;-76
2024/01/16 05:07:38;;;;;;;3.43;3.13;;;-0.30;46.10;;;;;;20700;6866;67980;-76
2024/01/16 05:10:04;;;;;;;5.17;4.30;;;-0.40;46.00;;;;;;20725;6866;68030;-76
2024/01/16 05:12:30;;;;;;;4.93;4.22;;;-0.50;46.40;;;;;;20511;6866;308174;-76
2024/01/16 05:14:55;;;;;;;4.87;3.70;;;-0.50;46.80;;;;;;20704;6866;68141;-75
2024/01/16 05:17:21;;;;;;;4.18;3.85;;;-0.40;46.90;;;;;;20523;6866;308075;-74
2024/01/16 05:19:46;;;;;;;3.83;3.53;;;-0.30;47.10;;;;;;20753;6867;67926;-75
2024/01/16 05:22:12;;;;;;;3.97;3.10;;;-0.30;46.90;;;;;;20659;6867;75266;-73
2024/01/16 05:24:38;;;;;;;4.63;3.17;;;-0.40;47.20;;;;;;20748;6867;69948;-73
2024/01/16 05:27:04;;;;;;;4.50;4.15;;;-0.60;47.40;;;;;;20542;6867;278717;-75
2024/01/16 05:29:29;;;;;;;4.50;4.17;;;-0.50;47.50;;;;;;20526;6867;308216;-74
2024/01/16 05:31:55;;;;;;;3.80;3.37;;;-0.10;46.70;;;;;;20735;6867;71185;-74
2024/01/16 05:34:22;;;;;;;3.37;3.07;;;-0.20;46.60;;;;;;20737;6867;75632;-75
2024/01/16 05:36:48;;;;;;;4.60;4.20;;;-0.30;46.90;;;;;;20535;6867;308129;-75
2024/01/16 05:39:14;;;;;;;4.23;3.93;;;0.10;46.70;;;;;;20529;6867;325594;-74
2024/01/16 05:41:40;;;;;;;3.70;3.40;;;0.10;46.70;;;;;;20741;6867;68420;-74
2024/01/16 05:44:05;;;;;;;4.50;4.10;;;0.10;46.60;;;;;;20530;6867;278616;-76
2024/01/16 05:46:31;;;;;;;3.47;3.27;;;0.10;46.60;;;;;;20732;6867;67942;-76
2024/01/16 05:48:56;;;;;;;3.23;2.93;;;0.10;46.60;;;;;;20729;6867;68370;-75
2024/01/16 05:51:22;;;;;;;3.43;3.07;;;-0.10;46.90;;;;;;20728;6867;67954;-76
2024/01/16 05:53:47;;;;;;;4.20;3.87;;;-0.30;47.20;;;;;;20519;6865;308239;-77
2024/01/16 05:56:14;;;;;;;3.30;3.10;;;-0.20;47.40;;;;;;20746;6866;67526;-75
2024/01/16 05:58:39;;;;;;;4.20;3.90;;;-0.20;47.10;;;;;;20535;6866;307536;-76
2024/01/16 06:01:04;;;;;;;4.55;4.15;;;0.00;47.30;;;;;;20525;6866;310062;-76
2024/01/16 06:03:30;;;;;;;3.40;3.20;;;0.30;46.90;;;;;;20725;6866;70446;-76
2024/01/16 06:05:55;;;;;;;4.40;4.07;;;0.30;46.60;;;;;;20511;6866;296187;-75
2024/01/16 06:08:21;;;;;;;3.93;3.57;;;0.30;46.20;;;;;;20737;6866;67808;-77
2024/01/16 06:10:46;;;;;;;4.22;3.90;;;0.20;46.00;;;;;;20511;6866;307729;-75
2024/01/16 06:13:12;;;;;;;3.90;3.58;;;0.30;45.70;;;;;;20725;6866;67485;-76
2024/01/16 06:15:46;;;;;;;4.32;4.00;;;0.20;45.60;;;;;;20515;6866;329838;-75
2024/01/16 06:18:12;;;;;;;5.03;4.30;;;0.20;45.10;;;;;;20550;6866;277943;-77
2024/01/16 06:20:38;;;;;;;4.57;4.05;;;0.40;44.50;;;;;;20751;6866;67769;-77
2024/01/16 06:23:03;;;;;;;3.20;2.90;;;0.40;44.70;;;;;;20740;6866;67955;-77
2024/01/16 06:25:29;;;;;;;3.23;3.03;;;0.10;45.10;;;;;;20729;6866;67962;-74
2024/01/16 06:27:55;;;;;;;4.15;3.85;;;-0.10;45.70;;;;;;20512;6866;307433;-76
2024/01/16 06:30:20;;;;;;;5.47;4.20;;;0.00;45.80;;;;;;20518;6866;279404;-76
2024/01/16 06:32:45;;;;;;;4.00;3.70;;;0.30;45.20;;;;;;20731;6867;68463;-76
2024/01/16 06:35:11;;;;;;;4.15;3.75;;;0.20;45.00;;;;;;20518;6867;278948;-76
2024/01/16 06:37:37;;;;;;;3.70;3.40;;;0.30;45.10;;;;;;20725;6867;69264;-76
2024/01/16 06:40:04;;;;;;;4.00;3.70;;;0.30;44.90;;;;;;20523;6867;308112;-75
2024/01/16 06:42:31;;;;;;;4.27;3.70;;;0.30;44.90;;;;;;20728;6867;67506;-76
2024/01/16 06:44:56;;;;;;;4.80;4.40;;;0.30;45.00;;;;;;20519;6867;301818;-76
2024/01/16 06:47:23;;;;;;;4.33;4.00;;;0.30;44.60;;;;;;20514;6867;333403;-76
2024/01/16 06:49:47;;;;;;;4.47;4.07;;;0.50;44.10;;;;;;20515;6867;319403;-75
2024/01/16 06:52:14;;;;;;;4.80;4.40;;;0.70;43.80;;;;;;20520;6867;302799;-77
2024/01/16 06:54:40;;;;;;;4.47;4.15;;;0.80;43.10;;;;;;20518;6867;309865;-76
2024/01/16 06:57:05;;;;;;;6.20;3.73;;;0.90;42.70;;;;;;20701;6867;68349;-77
2024/01/16 06:59:31;;;;;;;3.73;3.43;;;0.80;43.10;;;;;;20728;6867;69533;-76
2024/01/16 07:01:56;;;;;;;4.35;3.95;;;0.40;43.60;;;;;;20505;6867;305955;-76
2024/01/16 07:04:22;;;;;;;3.53;3.33;;;0.40;43.90;;;;;;20690;6865;69660;-76
2024/01/16 07:06:48;;;;;;;4.72;4.20;;;0.30;44.70;;;;;;20501;6866;278599;-74
2024/01/16 07:09:15;;;;;;;4.93;4.43;;;0.30;44.10;;;;;;20506;6866;279133;-76
2024/01/16 07:11:42;;;;;;;4.80;4.40;;;0.50;43.60;;;;;;20523;6866;337675;-75
2024/01/16 07:14:11;;;;;;;4.57;4.17;;;0.70;43.20;;;;;;20741;6866;72064;-75
2024/01/16 07:16:36;;;;;;;4.40;3.73;;;0.50;43.30;;;;;;20734;6866;69198;-75
2024/01/16 07:19:05;;;;;;;4.90;4.40;;;0.20;43.90;;;;;;20494;6866;339946;-76
2024/01/16 07:21:28;;;;;;;4.27;3.63;;;0.20;44.30;;;;;;20723;6866;67504;-74
2024/01/16 07:23:53;;;;;;;4.43;4.12;;;0.10;44.40;;;;;;20521;6866;308571;-75
2024/01/16 07:26:19;;;;;;;4.33;3.53;;;0.10;44.30;;;;;;20745;6866;67843;-75
2024/01/16 07:28:44;;;;;;;3.40;3.20;;;0.00;44.40;;;;;;20739;6866;73031;-75
2024/01/16 07:31:11;;;;;;;3.27;3.07;;;-0.10;44.90;;;;;;20740;6866;67508;-75
2024/01/16 07:33:36;;;;;;;4.53;3.23;;;-0.40;45.20;;;;;;20736;6866;70998;-76
2024/01/16 07:36:01;;;;;;;4.32;4.03;;;-0.60;45.70;;;;;;20521;6866;308066;-75
2024/01/16 07:38:28;;;;;;;3.90;3.60;;;-0.50;45.60;;;;;;20742;6866;67421;-75
2024/01/16 07:40:56;;;;;;;3.80;3.50;;;-0.50;45.50;;;;;;20737;6866;67503;-76
2024/01/16 07:43:20;;;;;;;4.57;4.17;;;-0.60;46.40;;;;;;20524;6867;278566;-76
2024/01/16 07:45:48;;;;;;;4.60;4.20;;;-0.50;45.80;;;;;;20530;6867;310422;-76
2024/01/16 07:48:13;;;;;;;4.75;4.35;;;-0.20;45.30;;;;;;20541;6867;308620;-75
2024/01/16 07:50:39;;;;;;;3.75;3.45;;;0.00;44.70;;;;;;20769;6867;67993;-76
2024/01/16 07:53:05;;;;;;;3.60;3.30;;;0.00;44.70;;;;;;20763;6867;67873;-75
2024/01/16 07:55:30;;;;;;;4.10;3.80;;;-0.20;45.10;;;;;;20548;6867;308551;-76
2024/01/16 07:57:56;;;;;;;3.30;3.03;;;-0.20;45.00;;;;;;20764;6867;68525;-76
2024/01/16 08:00:22;;;;;;;4.97;3.47;;;-0.30;45.50;;;;;;20747;6867;119457;-75
2024/01/16 08:02:48;;;;;;;3.23;3.03;;;-0.40;45.40;;;;;;20738;6867;120015;-76
2024/01/16 08:05:13;;;;;;;3.45;3.20;;;-0.50;45.90;;;;;;20723;6867;120430;-76
2024/01/16 08:07:39;;;;;;;10.65;9.35;;;-0.60;46.20;;;;;;20476;6882;311611;-75
2024/01/16 08:10:05;;;;;;;6.70;5.85;;;-0.40;46.00;;;;;;20741;6867;119576;-75
2024/01/16 08:12:30;;;;;;;3.53;3.33;;;-0.30;45.80;;;;;;20687;6885;119161;-76
2024/01/16 08:14:57;;;;;;;4.40;4.10;;;-0.40;46.00;;;;;;20739;6867;117639;-75
2024/01/16 08:17:23;;;;;;;4.90;4.50;;;-0.40;46.30;;;;;;20487;6865;433155;-75
2024/01/16 08:19:48;;;;;;;4.87;4.47;;;-0.30;45.80;;;;;;20512;6866;279928;-75
2024/01/16 08:22:15;;;;;;;5.85;5.35;;;0.10;45.10;;;;;;20444;6866;278965;-77
2024/01/16 08:24:40;;;;;;;7.53;6.93;;;0.40;44.30;;;;;;20517;6866;308930;-74
2024/01/16 08:27:06;;;;;;;5.93;5.50;;;0.60;43.70;;;;;;20468;6866;311036;-76
2024/01/16 08:29:31;;;;;;;5.45;4.95;;;0.80;43.40;;;;;;20505;6866;308689;-75
2024/01/16 08:31:57;;;;;;;4.90;4.50;;;0.90;42.90;;;;;;20714;6866;117617;-76
2024/01/16 08:34:24;;;;;;;5.60;5.00;;;0.80;43.30;;;;;;20497;6866;279543;-75
2024/01/16 08:36:51;;;;;;;4.40;4.00;;;0.80;43.30;;;;;;20712;6866;120669;-73
2024/01/16 08:39:17;;;;;;;5.87;4.17;;;0.70;43.60;;;;;;20675;6866;118045;-74
2024/01/16 08:41:42;;;;;;;4.90;4.50;;;0.50;44.20;;;;;;20503;6866;279169;-74
2024/01/16 08:44:07;;;;;;;5.37;4.87;;;0.60;44.20;;;;;;20499;6866;308591;-74
2024/01/16 08:46:34;;;;;;;6.37;5.87;;;1.10;43.20;;;;;;20448;6885;311837;-75
2024/01/16 08:49:00;;;;;;;5.27;4.87;;;1.30;42.70;;;;;;20452;6882;279596;-75
2024/01/16 08:51:26;;;;;;;3.97;3.67;;;1.30;42.70;;;;;;20650;6882;119862;-75
2024/01/16 08:53:51;;;;;;;4.82;4.43;;;1.30;43.10;;;;;;20454;6882;279857;-76
2024/01/16 08:56:17;;;;;;;5.05;4.65;;;1.30;43.10;;;;;;20474;6619;280597;-75
2024/01/16 08:58:52;;;;;;;5.13;4.63;;;1.50;42.80;;;;;;20922;6738;119058;-73
2024/01/16 09:01:28;;;;;;;4.87;4.47;;;1.50;43.00;;;;;;20959;6723;118842;-74
2024/01/16 09:04:04;;;;;;;4.60;4.20;;;1.10;44.20;;;;;;20835;6723;117067;-74
2024/01/16 09:06:40;;;;;;;4.37;4.07;;;1.10;44.20;;;;;;20735;6727;334978;-75
2024/01/16 09:09:16;;;;;;;4.87;4.47;;;1.60;42.60;;;;;;20720;6720;335699;-74
2024/01/16 09:11:52;;;;;;;4.50;4.20;;;1.50;42.50;;;;;;20776;6720;287547;-75
2024/01/16 09:14:28;;;;;;;5.28;4.25;;;1.90;41.70;;;;;;20604;6720;307929;-75
2024/01/16 09:17:04;;;;;;;4.13;3.77;;;2.20;41.00;;;;;;20915;6720;127878;-76
2024/01/16 09:19:40;;;;;;;6.13;5.63;;;2.30;41.50;;;;;;20783;6719;275651;-75
2024/01/16 09:22:16;;;;;;;9.60;8.70;;;2.40;41.20;;;;;;20742;6719;305058;-75
2024/01/16 09:24:52;;;;;;;6.97;4.80;;;2.70;40.10;;;;;;20780;6719;118449;-75
2024/01/16 09:27:28;;;;;;;3.83;3.43;;;2.80;40.60;;;;;;20946;6719;120198;-76
2024/01/16 09:30:04;;;;;;;3.33;3.13;;;2.60;41.40;;;;;;21003;6719;118120;-75
2024/01/16 09:32:42;;;;;;;3.80;3.50;;;2.50;42.20;;;;;;20945;6719;116554;-76
2024/01/16 09:35:17;;;;;;;6.13;5.53;;;2.60;41.50;;;;;;20733;6719;305488;-79
2024/01/16 09:37:52;;;;;;;3.70;3.40;;;2.60;41.40;;;;;;20960;6719;118696;-75
2024/01/16 09:40:28;;;;;;;5.33;4.83;;;2.70;41.70;;;;;;20748;6719;279108;-76
2024/01/16 09:43:04;;;;;;;5.20;4.80;;;2.80;40.30;;;;;;20680;6719;307568;-75
2024/01/16 09:45:39;;;;;;;4.30;3.67;;;3.20;39.80;;;;;;20957;6719;118523;-75
2024/01/16 09:48:15;;;;;;;3.83;3.53;;;3.30;40.00;;;;;;21000;6719;117286;-76
2024/01/16 09:50:51;;;;;;;4.67;4.27;;;3.20;39.80;;;;;;20788;6719;302820;-77
2024/01/16 09:53:26;;;;;;;5.40;3.50;;;3.20;39.80;;;;;;20861;6719;120259;-76
2024/01/16 09:56:03;;;;;;;3.77;3.43;;;3.30;40.40;;;;;;20959;6719;120083;-78
2024/01/16 09:58:38;;;;;;;3.63;3.40;;;3.20;40.70;;;;;;20962;6719;117839;-75
2024/01/16 10:01:13;;;;;;;4.87;3.60;;;3.00;41.00;;;;;;20940;6719;118400;-76
2024/01/16 10:03:49;;;;;;;4.67;4.33;;;2.90;41.50;;;;;;20636;6719;277470;-75
2024/01/16 10:06:24;;;;;;;3.63;3.33;;;3.10;40.50;;;;;;21005;6719;118822;-75
2024/01/16 10:09:00;;;;;;;3.93;3.63;;;3.20;40.70;;;;;;20999;6719;116802;-75
2024/01/16 10:11:36;;;;;;;4.53;4.00;;;3.20;40.10;;;;;;20766;6719;305322;-75
2024/01/16 10:14:12;;;;;;;3.63;3.37;;;3.20;39.60;;;;;;20838;6719;118290;-75
2024/01/16 10:16:54;;;;;;;3.97;3.53;;;3.30;39.80;;;;;;20945;6719;118778;-75
2024/01/16 10:19:30;;;;;;;4.85;4.47;;;3.10;40.30;;;;;;20709;6719;305520;-76
2024/01/16 10:22:08;;;;;;;4.82;4.47;;;3.20;39.60;;;;;;20748;6719;334309;-76
2024/01/16 10:24:45;;;;;;;5.50;5.00;;;3.50;38.60;;;;;;20522;6719;279962;-76
2024/01/16 10:27:20;;;;;;;4.53;4.23;;;3.80;38.70;;;;;;20988;6719;118268;-77
2024/01/16 10:29:59;;;;;;;5.40;4.90;;;3.80;39.40;;;;;;21002;6719;117784;-77
2024/01/16 10:32:34;;;;;;;5.47;4.97;;;3.70;40.10;;;;;;20776;6719;307036;-78
2024/01/16 10:35:13;;;;;;;5.10;4.70;;;3.80;38.80;;;;;;20769;6719;318804;-78
2024/01/16 10:37:53;;;;;;;4.50;4.10;;;4.20;38.20;;;;;;20966;6719;120190;-77
2024/01/16 10:40:30;;;;;;;4.50;4.20;;;4.30;38.00;;;;;;20748;6719;295420;-77
2024/01/16 10:43:04;;;;;;;4.40;4.00;;;4.50;37.30;;;;;;20896;6719;118381;-78
2024/01/16 10:45:40;;;;;;;5.40;3.73;;;4.50;37.70;;;;;;20998;6719;117887;-78
2024/01/16 10:48:16;;;;;;;4.20;3.80;;;4.40;39.60;;;;;;20968;6719;120075;-77
2024/01/16 10:50:52;;;;;;;6.67;4.53;;;4.40;39.60;;;;;;20960;6719;117896;-77
2024/01/16 10:53:27;;;;;;;4.27;3.87;;;4.20;39.90;;;;;;20864;6719;117590;-78
2024/01/16 10:56:04;;;;;;;3.93;3.63;;;4.00;40.50;;;;;;20966;6719;117717;-76
2024/01/16 10:58:42;;;;;;;3.60;3.40;;;3.90;40.80;;;;;;20998;6719;116812;-77
2024/01/16 11:01:19;;;;;;;4.77;4.37;;;4.00;39.20;;;;;;20726;6719;324638;-76
2024/01/16 11:03:57;;;;;;;4.50;4.17;;;4.00;39.20;;;;;;20856;6719;119671;-78
2024/01/16 11:06:29;;;;;;;4.83;3.70;;;4.10;39.40;;;;;;20984;6719;119768;-78
2024/01/16 11:09:06;;;;;;;4.93;4.20;;;4.10;40.30;;;;;;20949;6719;118234;-75
2024/01/16 11:11:41;;;;;;;3.60;3.40;;;4.10;40.30;;;;;;20940;6719;116815;-75
2024/01/16 11:14:18;;;;;;;5.25;4.85;;;4.30;39.50;;;;;;20502;6719;338536;-79
2024/01/16 11:16:53;;;;;;;5.97;4.43;;;4.30;38.80;;;;;;20950;6719;119998;-76
2024/01/16 11:19:29;;;;;;;4.57;4.27;;;4.50;39.10;;;;;;20919;6720;120106;-76
2024/01/16 11:22:04;;;;;;;5.17;4.70;;;4.40;39.50;;;;;;20963;6719;117744;-75
2024/01/16 11:24:40;;;;;;;5.45;5.03;;;4.40;40.00;;;;;;20570;6720;307325;-75
2024/01/16 11:27:23;;;;;;;5.30;4.90;;;4.60;39.10;;;;;;20944;6719;118264;-78
2024/01/16 11:29:58;;;;;;;5.20;4.70;;;4.80;39.60;;;;;;20697;6719;277087;-75
2024/01/16 11:32:44;;;;;;;5.03;4.53;;;5.00;38.00;;;;;;20917;6719;120768;-75
2024/01/16 11:35:18;;;;;;;4.83;4.43;;;4.90;37.90;;;;;;20932;6719;121075;-75
2024/01/16 11:37:53;;;;;;;4.70;4.03;;;4.80;38.50;;;;;;20943;6776;120785;-75
2024/01/16 11:40:29;;;;;;;6.17;5.17;;;4.60;39.00;;;;;;20724;6719;305497;-76
2024/01/16 11:43:24;;;;;;;6.73;4.57;;;4.70;38.40;;;;;;20884;6719;118256;-75
2024/01/16 11:46:01;;;;;;;4.90;4.50;;;4.80;37.50;;;;;;20662;6743;338851;-74
2024/01/16 11:48:39;;;;;;;5.23;4.27;;;4.80;37.40;;;;;;20933;6737;117382;-81
2024/01/16 11:51:24;;;;;;;6.90;6.20;;;5.00;37.50;;;;;;20717;6737;277865;-76
2024/01/16 11:54:00;;;;;;;4.77;4.43;;;5.00;37.50;;;;;;20797;6736;117583;-75
2024/01/16 11:56:38;;;;;;;5.00;4.50;;;5.00;38.10;;;;;;20961;6733;117750;-76
2024/01/16 11:59:31;;;;;;;5.03;4.20;;;4.60;39.10;;;;;;20599;6793;122667;-75
2024/01/16 12:02:07;;;;;;;5.00;4.60;;;4.60;39.00;;;;;;20991;6722;116974;-76
2024/01/16 12:04:43;;;;;;;5.47;4.97;;;4.50;39.60;;;;;;20563;6736;309475;-75
2024/01/16 12:07:19;;;;;;;5.13;4.63;;;4.60;37.80;;;;;;20721;6733;294125;-75
2024/01/16 12:09:54;;;;;;;5.23;4.30;;;4.90;36.90;;;;;;20895;6748;119063;-74
2024/01/16 12:12:30;;;;;;;4.40;4.03;;;4.90;38.10;;;;;;20927;6748;121919;-76
2024/01/16 12:15:06;;;;;;;5.55;4.18;;;4.80;38.50;;;;;;20670;6748;335904;-77
2024/01/16 12:17:58;;;;;;;4.97;3.87;;;4.90;36.60;;;;;;20928;6748;117011;-77
2024/01/16 12:20:33;;;;;;;4.63;3.43;;;4.90;37.10;;;;;;21002;6718;116633;-76
2024/01/16 12:23:09;;;;;;;4.17;3.77;;;4.70;37.70;;;;;;20708;6718;308481;-76
2024/01/16 12:25:45;;;;;;;3.90;3.23;;;4.80;36.80;;;;;;20904;6748;118187;-76
2024/01/16 12:28:20;;;;;;;3.43;3.13;;;4.80;37.30;;;;;;20909;6748;117938;-75
2024/01/16 12:30:57;;;;;;;2.30;2.20;;;4.60;38.70;;;;;;20894;6752;116734;-75
2024/01/16 12:33:32;;;;;;;2.65;2.45;;;4.60;38.60;;;;;;20659;6733;299255;-77
2024/01/16 12:36:10;;;;;;;3.12;2.75;;;4.70;36.60;;;;;;20747;6718;305520;-77
2024/01/16 12:38:43;;;;;;;3.37;2.70;;;5.00;35.30;;;;;;21005;6718;116746;-75
2024/01/16 12:41:20;;;;;;;2.67;2.40;;;5.10;35.90;;;;;;20986;6718;116762;-75
2024/01/16 12:43:54;;;;;;;3.60;2.70;;;4.90;36.40;;;;;;20645;6718;336107;-76
2024/01/16 12:46:32;;;;;;;2.13;2.03;;;4.90;34.00;;;;;;20967;6718;116667;-74
2024/01/16 12:49:11;;;;;;;2.90;2.60;;;4.90;34.70;;;;;;20940;6718;116766;-73
2024/01/16 12:51:44;;;;;;;3.27;3.00;;;4.80;35.40;;;;;;20956;6718;116794;-75
2024/01/16 12:54:23;;;;;;;3.73;3.27;;;4.60;36.20;;;;;;20816;6718;117263;-73
2024/01/16 12:56:59;;;;;;;4.50;4.10;;;4.50;36.90;;;;;;20787;6718;309914;-72
2024/01/16 12:59:35;;;;;;;3.80;3.50;;;4.60;36.10;;;;;;20771;6718;306572;-76
2024/01/16 13:02:11;;;;;;;4.57;3.70;;;4.90;35.40;;;;;;20744;6718;306394;-73
2024/01/16 13:04:47;;;;;;;4.17;3.80;;;5.40;34.60;;;;;;20585;6717;280481;-72